NCAR-RAP Real-Time Weather Data

Output produced by METARs form (12 May 2021  10:25 UTC)
found at http://weather.rap.ucar.edu/surface/
 
KTCL 120953Z AUTO 35008KT 10SM BKN007 BKN070 OVC085 16/15 A3007 RMK AO2 RAE33 SLP180 P0001 T01560150
KTCL 120938Z AUTO 35008KT 10SM BKN006 OVC100 16/15 A3005 RMK AO2 RAE33 P0001 T01560150
KTCL 120930Z AUTO 35006KT 10SM -RA SCT006 OVC100 16/15 A3005 RMK AO2 P0001 T01560150
KTCL 120853Z AUTO VRB03KT 7SM -RA SCT070 OVC100 16/15 A3004 RMK AO2 SLP172 P0007 60025 T01560150 58015
KTCL 120806Z AUTO 03006KT 4SM RA BR FEW007 SCT050 OVC075 16/15 A3008 RMK AO2 P0003 T01560150
KTCL 120753Z AUTO 03004KT 6SM -RA BR FEW060 OVC075 16/15 A3008 RMK AO2 SLP184 P0010 T01560150
KTCL 120653Z AUTO 01004KT 3SM RA BR FEW020 BKN055 OVC070 16/15 A3009 RMK AO2 RAE01B23 SLP187 P0008 T01560150
KTCL 120649Z AUTO 01005KT 3SM RA BR SCT020 OVC060 16/15 A3009 RMK AO2 RAE01B23 P0007
KTCL 120614Z AUTO 36005KT 10SM BKN021 BKN070 OVC100 16/15 A3008 RMK AO2 RAE01 P0000 T01610150
KTCL 120553Z AUTO 01011KT 10SM -RA FEW055 FEW075 OVC100 17/15 A3007 RMK AO2 RAE18B44 SLP181 P0001 60002 T01670150 10211 20167 402220167 58010
KTCL 120536Z AUTO 36009KT 10SM FEW014 SCT044 OVC110 17/16 A3007 RMK AO2 RAE18 P0001 T01670156
KTCL 120453Z AUTO 34009KT 8SM -RA FEW009 BKN015 OVC020 19/18 A3009 RMK AO2 SLP188 P0000 T01890178
KTCL 120423Z AUTO 35004KT 7SM -RA BKN022 BKN029 OVC110 19/18 A3010 RMK AO2 P0000 T01940183
KTCL 120353Z AUTO 00000KT 6SM -RA BR FEW026 SCT046 OVC110 19/18 A3010 RMK AO2 RAB16 SLP192 P0001 T01940183
KTCL 120253Z AUTO 00000KT 9SM BKN070 OVC085 20/18 A3010 RMK AO2 SLP192 T02000183 51021
KTCL 120153Z AUTO 33003KT 9SM SCT020 BKN080 20/18 A3008 RMK AO2 SLP184 T02000183
KTCL 120053Z AUTO 05005KT 9SM BKN018 20/18 A3004 RMK AO2 SLP171 T02000183
KTCL 112353Z 02006KT 9SM OVC016 21/18 A3001 RMK AO2 SLP161 T02110183 10222 20200 56015
KTCL 112253Z 03007KT 8SM OVC015 21/18 A3002 RMK AO2 SLP165 T02110183
KTCL 112153Z 02005KT 9SM OVC015 22/18 A3005 RMK AO2 SLP173 T02170183
KTCL 112139Z 03003KT 9SM OVC015 22/18 A3005 RMK AO2 T02170183
KTCL 112053Z 36004KT 9SM OVC014 22/18 A3006 RMK AO2 SLP177 T02220183 56020
KTCL 112046Z 33003KT 8SM OVC014 22/18 A3006 RMK AO2 T02170183
KTCL 112020Z 31005KT 9SM OVC015 22/18 A3007 RMK AO2 T02170183
KTCL 111953Z 32004KT 9SM OVC014 22/18 A3007 RMK AO2 SLP180 T02170178